createdAt,value
2019-01-20T00:01:04.102Z,14.83
2019-01-20T00:03:32.485Z,11.70
2019-01-20T00:06:00.881Z,11.20
2019-01-20T00:08:32.027Z,10.53
2019-01-20T00:11:16.357Z,10.93
2019-01-20T00:13:57.478Z,10.60
2019-01-20T00:16:28.769Z,10.80
2019-01-20T00:19:00.086Z,10.60
2019-01-20T00:21:34.122Z,10.03
2019-01-20T00:24:05.401Z,9.97
2019-01-20T00:26:36.597Z,13.27
2019-01-20T00:29:12.183Z,11.00
2019-01-20T00:31:43.226Z,11.70
2019-01-20T00:34:15.502Z,11.70
2019-01-20T00:36:47.160Z,11.83
2019-01-20T00:39:15.855Z,10.90
2019-01-20T00:41:50.526Z,10.73
2019-01-20T00:44:18.935Z,12.50
2019-01-20T00:46:50.490Z,12.43
2019-01-20T00:49:23.058Z,17.67
2019-01-20T00:51:51.392Z,9.43
2019-01-20T00:54:22.723Z,12.50
2019-01-20T00:56:51.367Z,10.60
2019-01-20T00:59:22.671Z,11.37
2019-01-20T01:01:52.784Z,10.23
2019-01-20T01:04:24.237Z,11.90
2019-01-20T01:06:52.689Z,10.47
2019-01-20T01:09:26.536Z,12.20
2019-01-20T01:11:54.990Z,10.90
2019-01-20T01:14:26.052Z,12.03
2019-01-20T01:16:54.438Z,8.90
2019-01-20T01:19:22.839Z,11.80
2019-01-20T01:21:51.227Z,10.60
2019-01-20T01:24:19.626Z,10.97
2019-01-20T01:26:56.810Z,14.23
2019-01-20T01:29:25.458Z,13.87
2019-01-20T01:31:58.177Z,14.60
2019-01-20T01:34:26.637Z,13.37
2019-01-20T01:36:55.044Z,12.73
2019-01-20T01:39:23.497Z,12.43
2019-01-20T01:41:51.902Z,10.83
2019-01-20T01:44:20.296Z,12.10
2019-01-20T01:46:48.681Z,11.43
2019-01-20T01:49:17.086Z,12.37
2019-01-20T01:51:48.653Z,10.47
2019-01-20T01:54:25.961Z,12.60
2019-01-20T01:56:54.357Z,12.23
2019-01-20T01:59:28.569Z,12.57
2019-01-20T02:02:02.681Z,13.90
2019-01-20T02:04:36.913Z,11.83
2019-01-20T02:07:08.023Z,7.83
2019-01-20T02:09:41.869Z,11.10
2019-01-20T02:12:17.134Z,11.00
2019-01-20T02:14:45.656Z,11.33
2019-01-20T02:17:17.092Z,12.47
2019-01-20T02:19:51.233Z,9.57
2019-01-20T02:22:22.793Z,14.07
2019-01-20T02:24:54.229Z,10.53
2019-01-20T02:27:22.621Z,11.20
2019-01-20T02:29:51.022Z,13.70
2019-01-20T02:32:22.608Z,15.77
2019-01-20T02:34:53.678Z,11.80
2019-01-20T02:37:22.065Z,11.87
2019-01-20T02:39:50.730Z,11.50
2019-01-20T02:42:22.305Z,13.07
2019-01-20T02:44:55.351Z,9.10
2019-01-20T02:47:31.488Z,11.47
2019-01-20T02:49:59.892Z,11.67
2019-01-20T02:52:32.815Z,11.97
2019-01-20T02:55:04.833Z,14.43
2019-01-20T02:57:37.356Z,15.97
2019-01-20T03:00:26.947Z,10.23
2019-01-20T03:02:57.142Z,15.17
2019-01-20T03:05:33.830Z,10.67
2019-01-20T03:08:08.314Z,12.60
2019-01-20T03:10:36.718Z,13.17
2019-01-20T03:13:11.162Z,12.23
2019-01-20T03:15:42.328Z,13.73
2019-01-20T03:18:10.724Z,15.77
2019-01-20T03:20:39.129Z,16.90
2019-01-20T03:23:10.263Z,16.20
2019-01-20T03:25:41.710Z,16.63
2019-01-20T03:28:13.585Z,21.33
2019-01-20T03:30:43.622Z,24.77
2019-01-20T03:33:13.664Z,15.07
2019-01-20T03:35:42.046Z,20.00
2019-01-20T03:38:13.352Z,14.60
2019-01-20T03:40:41.998Z,14.63
2019-01-20T03:43:10.382Z,13.63
2019-01-20T03:45:38.773Z,15.50
2019-01-20T03:48:07.174Z,11.60
2019-01-20T03:50:35.584Z,19.80
2019-01-20T03:53:04.820Z,20.47
2019-01-20T03:55:34.223Z,21.50
2019-01-20T03:58:02.604Z,22.30
2019-01-20T04:00:30.990Z,24.73
2019-01-20T04:03:00.563Z,22.27
2019-01-20T04:05:29.060Z,19.30
2019-01-20T04:07:57.779Z,19.70
2019-01-20T04:10:26.200Z,19.33
2019-01-20T04:12:54.661Z,18.33
2019-01-20T04:15:23.046Z,19.67
2019-01-20T04:17:51.445Z,16.43
2019-01-20T04:20:20.886Z,13.13
2019-01-20T04:22:49.281Z,19.20
2019-01-20T04:25:21.724Z,14.03
2019-01-20T04:27:50.114Z,15.67
2019-01-20T04:30:21.088Z,17.03
2019-01-20T04:32:49.689Z,15.30
2019-01-20T04:35:18.345Z,14.67
2019-01-20T04:37:46.870Z,13.43
2019-01-20T04:40:20.758Z,19.93
2019-01-20T04:42:51.647Z,16.20
2019-01-20T04:45:20.033Z,12.73
2019-01-20T04:47:48.504Z,16.10
2019-01-20T04:50:22.475Z,15.47
2019-01-20T04:52:51.101Z,14.60
2019-01-20T04:55:19.629Z,12.40
2019-01-20T04:57:49.665Z,16.17
2019-01-20T05:00:25.338Z,13.73
2019-01-20T05:02:53.729Z,13.70
2019-01-20T05:05:23.116Z,10.80
2019-01-20T05:07:52.627Z,10.33
2019-01-20T05:10:21.757Z,15.13
2019-01-20T05:12:51.797Z,16.53
2019-01-20T05:15:24.159Z,13.27
2019-01-20T05:17:53.507Z,14.30
2019-01-20T05:20:25.092Z,11.80
2019-01-20T05:23:02.625Z,14.57
2019-01-20T05:25:34.097Z,9.83
2019-01-20T05:28:02.480Z,14.20
2019-01-20T05:30:30.879Z,16.23
2019-01-20T05:33:05.013Z,12.43
2019-01-20T05:35:33.421Z,13.00
2019-01-20T05:38:01.879Z,11.13
2019-01-20T05:40:33.476Z,14.93
2019-01-20T05:43:07.665Z,19.00
2019-01-20T05:45:36.082Z,12.47
2019-01-20T05:48:05.072Z,10.67
2019-01-20T05:50:33.469Z,12.17
2019-01-20T05:53:06.436Z,13.23
2019-01-20T05:55:37.578Z,11.43
2019-01-20T05:58:08.913Z,10.90
2019-01-20T06:00:48.693Z,13.33
2019-01-20T06:03:10.922Z,14.47
2019-01-20T06:05:42.118Z,12.07
2019-01-20T06:08:13.499Z,12.53
2019-01-20T06:10:43.533Z,13.93
2019-01-20T06:13:17.199Z,17.10
2019-01-20T06:15:45.895Z,11.37
2019-01-20T06:18:18.894Z,13.50
2019-01-20T06:20:54.396Z,12.43
2019-01-20T06:23:22.784Z,12.10
2019-01-20T06:25:57.118Z,13.57
2019-01-20T06:28:27.158Z,14.60
2019-01-20T06:30:55.789Z,14.33
2019-01-20T06:33:24.184Z,16.90
2019-01-20T06:35:55.121Z,14.80
2019-01-20T06:38:29.513Z,13.83
2019-01-20T06:41:00.632Z,14.07
2019-01-20T06:43:31.235Z,15.43
2019-01-20T06:46:05.692Z,14.30
2019-01-20T06:48:38.525Z,12.37
2019-01-20T06:51:09.764Z,19.10
2019-01-20T06:53:38.150Z,9.77
2019-01-20T06:56:12.941Z,11.20
2019-01-20T06:58:41.323Z,15.33
2019-01-20T07:01:09.752Z,10.27
2019-01-20T07:03:38.366Z,14.87
2019-01-20T07:06:11.338Z,13.50
2019-01-20T07:08:41.597Z,14.47
2019-01-20T07:11:13.255Z,18.90
2019-01-20T07:13:46.164Z,18.23
2019-01-20T07:16:16.209Z,21.40
2019-01-20T07:18:47.305Z,22.37
2019-01-20T07:21:15.693Z,16.97
2019-01-20T07:23:44.338Z,14.57
2019-01-20T07:26:18.751Z,14.47
2019-01-20T07:28:47.160Z,16.43
2019-01-20T07:31:17.433Z,12.47
2019-01-20T07:33:48.525Z,17.27
2019-01-20T07:36:21.305Z,12.70
2019-01-20T07:38:52.761Z,11.87
2019-01-20T07:41:21.145Z,13.33
2019-01-20T07:43:54.258Z,19.23
2019-01-20T07:46:25.350Z,15.20
2019-01-20T07:48:53.742Z,15.90
2019-01-20T07:51:24.437Z,14.50
2019-01-20T07:53:52.834Z,16.40
2019-01-20T07:56:22.868Z,16.77
2019-01-20T07:58:54.225Z,14.37
2019-01-20T08:01:22.853Z,14.13
2019-01-20T08:03:54.240Z,16.53
2019-01-20T08:06:25.437Z,16.90
2019-01-20T08:08:56.529Z,14.60
2019-01-20T08:11:24.942Z,16.23
2019-01-20T08:14:01.554Z,11.83
2019-01-20T08:16:30.053Z,12.27
2019-01-20T08:19:00.110Z,17.10
2019-01-20T08:21:34.796Z,18.67
2019-01-20T08:24:03.252Z,13.63
2019-01-20T08:26:34.709Z,15.27
2019-01-20T08:29:05.817Z,16.47
2019-01-20T08:31:34.223Z,17.40
2019-01-20T08:34:02.620Z,13.97
2019-01-20T08:36:36.737Z,14.93
2019-01-20T08:39:07.271Z,19.17
2019-01-20T08:41:38.888Z,24.60
2019-01-20T08:44:10.533Z,15.50
2019-01-20T08:46:41.997Z,15.57
2019-01-20T08:49:14.465Z,12.40
2019-01-20T08:51:43.259Z,14.70
2019-01-20T08:54:11.683Z,16.03
2019-01-20T08:56:45.863Z,18.30
2019-01-20T08:59:34.662Z,17.77
2019-01-20T09:02:04.241Z,14.47
2019-01-20T09:04:36.733Z,16.97
2019-01-20T09:07:06.472Z,14.90
2019-01-20T09:09:37.300Z,14.87
2019-01-20T09:12:05.696Z,16.83
2019-01-20T09:14:36.741Z,12.17
2019-01-20T09:17:08.329Z,14.17
2019-01-20T09:19:38.365Z,14.80
2019-01-20T09:22:09.191Z,12.93
2019-01-20T09:24:43.194Z,13.43
2019-01-20T09:27:14.558Z,13.23
2019-01-20T09:29:46.089Z,13.83
2019-01-20T09:32:14.487Z,9.77
2019-01-20T09:34:42.864Z,13.47
2019-01-20T09:37:16.725Z,13.83
2019-01-20T09:39:45.126Z,14.73
2019-01-20T09:42:14.518Z,14.73
2019-01-20T09:44:42.913Z,14.30
2019-01-20T09:47:15.210Z,13.47
2019-01-20T09:49:43.615Z,15.30
2019-01-20T09:52:16.005Z,18.47
2019-01-20T09:54:44.388Z,12.07
2019-01-20T09:57:14.345Z,14.73
2019-01-20T09:59:46.079Z,15.07
2019-01-20T10:02:16.101Z,13.83
2019-01-20T10:04:50.481Z,15.53
2019-01-20T10:07:21.789Z,15.97
2019-01-20T10:09:50.409Z,13.70
2019-01-20T10:12:18.798Z,15.67
2019-01-20T10:14:47.178Z,17.97
2019-01-20T10:17:15.714Z,14.57
2019-01-20T10:19:45.234Z,13.77
2019-01-20T10:22:16.569Z,12.83
2019-01-20T10:24:47.816Z,12.60
2019-01-20T10:27:24.251Z,17.93
2019-01-20T10:29:52.662Z,12.50
2019-01-20T10:32:23.768Z,16.00
2019-01-20T10:34:53.441Z,15.67
2019-01-20T10:37:22.007Z,14.17
2019-01-20T10:39:50.387Z,14.93
2019-01-20T10:42:21.738Z,14.53
2019-01-20T10:44:51.390Z,19.57
2019-01-20T10:47:20.033Z,13.33
2019-01-20T10:49:48.666Z,15.33
2019-01-20T10:52:17.324Z,13.50
2019-01-20T10:54:47.469Z,19.47
2019-01-20T10:57:18.562Z,17.50
2019-01-20T10:59:49.960Z,11.90
2019-01-20T11:02:18.354Z,14.23
2019-01-20T11:04:47.764Z,16.53
2019-01-20T11:07:16.326Z,16.13
2019-01-20T11:09:45.449Z,16.80
2019-01-20T11:12:16.588Z,18.13
2019-01-20T11:14:45.047Z,13.17
2019-01-20T11:17:13.459Z,14.73
2019-01-20T11:19:44.607Z,15.03
2019-01-20T11:22:13.004Z,15.20
2019-01-20T11:24:43.023Z,14.97
2019-01-20T11:27:20.285Z,14.93
2019-01-20T11:29:48.924Z,16.23
2019-01-20T11:32:17.320Z,15.33
2019-01-20T11:34:47.382Z,15.13
2019-01-20T11:37:15.786Z,14.17
2019-01-20T11:39:50.158Z,15.80
2019-01-20T11:42:23.127Z,17.37
2019-01-20T11:44:51.556Z,14.27
2019-01-20T11:47:19.958Z,15.97
2019-01-20T11:49:48.606Z,19.33
2019-01-20T11:52:19.088Z,16.70
2019-01-20T11:54:47.434Z,16.27
2019-01-20T11:57:16.032Z,15.87
2019-01-20T11:59:44.449Z,15.67
2019-01-20T12:02:13.058Z,15.23
2019-01-20T12:04:41.461Z,13.53
2019-01-20T12:07:11.561Z,14.80
2019-01-20T12:09:40.030Z,15.83
2019-01-20T12:12:11.148Z,16.70
2019-01-20T12:14:39.557Z,15.60
2019-01-20T12:17:07.942Z,13.80
2019-01-20T12:19:39.301Z,15.40
2019-01-20T12:22:10.518Z,16.27
2019-01-20T12:24:39.753Z,16.80
2019-01-20T12:27:13.909Z,17.57
2019-01-20T12:29:51.654Z,15.73
2019-01-20T12:32:15.473Z,16.47
2019-01-20T12:34:46.813Z,15.53
2019-01-20T12:37:15.239Z,17.30
2019-01-20T12:39:43.619Z,15.43
2019-01-20T12:42:12.016Z,18.27
2019-01-20T12:44:40.680Z,15.67
2019-01-20T12:47:09.091Z,16.63
2019-01-20T12:49:37.485Z,16.10
2019-01-20T12:52:08.958Z,14.93
2019-01-20T12:54:39.005Z,17.23
2019-01-20T12:57:10.838Z,16.97
2019-01-20T12:59:40.502Z,15.10
2019-01-20T13:02:11.803Z,17.93
2019-01-20T13:04:40.227Z,14.47
2019-01-20T13:07:17.536Z,15.50
2019-01-20T13:09:45.951Z,16.20
2019-01-20T13:12:14.353Z,15.47
2019-01-20T13:14:45.811Z,18.57
2019-01-20T13:17:14.214Z,19.40
2019-01-20T13:19:45.721Z,20.00
2019-01-20T13:22:16.849Z,24.57
2019-01-20T13:24:45.232Z,20.00
2019-01-20T13:27:16.700Z,20.63
2019-01-20T13:29:45.112Z,15.33
2019-01-20T13:32:13.776Z,16.83
2019-01-20T13:34:45.969Z,15.43
2019-01-20T13:37:16.241Z,26.83
2019-01-20T13:39:45.625Z,38.23
2019-01-20T13:42:14.822Z,19.93
2019-01-20T13:44:46.341Z,44.47
2019-01-20T13:47:15.230Z,32.57
2019-01-20T13:49:43.622Z,20.00
2019-01-20T13:52:13.658Z,17.83
2019-01-20T13:54:43.314Z,17.73
2019-01-20T13:57:14.715Z,18.97
2019-01-20T13:59:44.754Z,19.67
2019-01-20T14:02:14.784Z,19.90
2019-01-20T14:04:43.183Z,20.13
2019-01-20T14:07:14.585Z,24.30
2019-01-20T14:09:42.982Z,20.53
2019-01-20T14:12:20.630Z,18.47
2019-01-20T14:14:53.855Z,20.03
2019-01-20T14:17:19.655Z,18.60
2019-01-20T14:19:49.689Z,17.53
2019-01-20T14:22:19.781Z,20.47
2019-01-20T14:24:49.797Z,19.40
2019-01-20T14:27:23.911Z,18.43
2019-01-20T14:29:55.265Z,19.63
2019-01-20T14:32:23.642Z,17.33
2019-01-20T14:34:56.157Z,16.37
2019-01-20T14:37:26.153Z,18.33
2019-01-20T14:39:57.008Z,17.13
2019-01-20T14:42:25.409Z,20.73
2019-01-20T14:45:01.240Z,16.47
2019-01-20T14:47:32.872Z,18.23
2019-01-20T14:50:01.275Z,20.30
2019-01-20T14:52:31.297Z,15.90
2019-01-20T14:55:02.861Z,16.10
2019-01-20T14:57:33.970Z,18.90
2019-01-20T15:00:06.223Z,18.30
2019-01-20T15:02:34.561Z,18.67
2019-01-20T15:05:04.667Z,19.30
2019-01-20T15:07:36.045Z,19.40
2019-01-20T15:10:09.178Z,16.60
2019-01-20T15:12:37.625Z,19.67
2019-01-20T15:15:15.251Z,18.37
2019-01-20T15:17:43.672Z,21.23
2019-01-20T15:20:16.980Z,16.90
2019-01-20T15:22:45.365Z,17.10
2019-01-20T15:25:17.803Z,17.50
2019-01-20T15:27:46.211Z,18.33
2019-01-20T15:30:17.883Z,20.20
2019-01-20T15:32:46.512Z,19.40
2019-01-20T15:35:17.825Z,25.00
2019-01-20T15:37:49.060Z,19.57
2019-01-20T15:40:20.777Z,21.70
2019-01-20T15:42:49.270Z,21.70
2019-01-20T15:45:20.644Z,22.63
2019-01-20T15:47:52.661Z,25.90
2019-01-20T15:50:27.474Z,23.60
2019-01-20T15:52:57.509Z,23.23
2019-01-20T15:55:29.009Z,24.93
2019-01-20T15:58:01.934Z,24.43
2019-01-20T16:00:33.205Z,22.70
2019-01-20T16:03:01.744Z,22.83
2019-01-20T16:05:33.539Z,24.20
2019-01-20T16:08:01.929Z,23.80
2019-01-20T16:10:30.598Z,23.17
2019-01-20T16:13:00.293Z,23.90
2019-01-20T16:15:33.444Z,25.17
2019-01-20T16:18:14.525Z,21.87
2019-01-20T16:20:46.122Z,21.20
2019-01-20T16:23:17.610Z,26.37
2019-01-20T16:25:47.261Z,27.47
2019-01-20T16:28:18.126Z,28.57
2019-01-20T16:30:46.494Z,24.47
2019-01-20T16:33:17.607Z,25.80
2019-01-20T16:35:47.709Z,26.40
2019-01-20T16:38:16.523Z,26.87
2019-01-20T16:40:45.146Z,28.40
2019-01-20T16:43:13.504Z,27.97
2019-01-20T16:45:42.521Z,26.20
2019-01-20T16:48:15.087Z,25.97
2019-01-20T16:50:43.594Z,25.57
2019-01-20T16:53:15.152Z,25.47
2019-01-20T16:55:43.638Z,27.40
2019-01-20T16:58:12.029Z,24.10
2019-01-20T17:00:41.728Z,25.50
2019-01-20T17:03:10.128Z,26.97
2019-01-20T17:05:40.945Z,27.73
2019-01-20T17:08:09.345Z,28.27
2019-01-20T17:10:40.264Z,24.83
2019-01-20T17:13:15.155Z,29.13
2019-01-20T17:15:44.399Z,26.67
2019-01-20T17:18:16.158Z,29.90
2019-01-20T17:20:44.709Z,30.90
2019-01-20T17:23:13.101Z,31.60
2019-01-20T17:25:45.892Z,28.37
2019-01-20T17:28:22.759Z,35.70
2019-01-20T17:30:56.961Z,34.80
2019-01-20T17:33:31.196Z,44.07
2019-01-20T17:35:59.897Z,38.70
2019-01-20T17:38:28.301Z,35.37
2019-01-20T17:41:00.991Z,34.60
2019-01-20T17:43:32.145Z,34.73
2019-01-20T17:46:00.646Z,31.27
2019-01-20T17:48:31.505Z,38.13
2019-01-20T17:51:01.524Z,39.57
2019-01-20T17:53:33.669Z,33.83
2019-01-20T17:56:12.915Z,38.17
2019-01-20T17:58:41.339Z,37.00
2019-01-20T18:01:12.925Z,40.90
2019-01-20T18:03:44.096Z,36.53
2019-01-20T18:06:14.282Z,40.17
2019-01-20T18:08:45.601Z,37.53
2019-01-20T18:11:17.103Z,41.40
2019-01-20T18:13:48.033Z,49.73
2019-01-20T18:16:20.057Z,61.40
2019-01-20T18:18:50.089Z,67.03
2019-01-20T18:21:21.236Z,50.57
2019-01-20T18:23:49.610Z,79.50
2019-01-20T18:26:19.658Z,63.57
2019-01-20T18:28:53.617Z,81.87
2019-01-20T18:31:32.897Z,52.40
2019-01-20T18:34:01.286Z,55.27
2019-01-20T18:36:29.697Z,62.50
2019-01-20T18:38:58.601Z,87.33
2019-01-20T18:41:29.718Z,82.90
2019-01-20T18:44:00.813Z,53.23
2019-01-20T18:46:32.142Z,90.53
2019-01-20T18:49:06.307Z,88.33
2019-01-20T18:51:36.350Z,60.07
2019-01-20T18:54:04.753Z,35.20
2019-01-20T18:56:35.046Z,209.10
2019-01-20T18:59:03.462Z,192.47
2019-01-20T19:01:31.883Z,122.40
2019-01-20T19:04:00.285Z,53.07
2019-01-20T19:06:33.102Z,37.30
2019-01-20T19:09:01.500Z,41.30
2019-01-20T19:11:32.872Z,37.07
2019-01-20T19:14:04.235Z,36.70
2019-01-20T19:16:32.666Z,38.33
2019-01-20T19:19:06.403Z,41.33
2019-01-20T19:21:34.819Z,45.53
2019-01-20T19:24:09.936Z,43.87
2019-01-20T19:26:50.145Z,43.70
2019-01-20T19:29:23.299Z,45.83
2019-01-20T19:31:51.697Z,46.43
2019-01-20T19:34:22.584Z,39.77
2019-01-20T19:36:51.006Z,46.80
2019-01-20T19:39:22.525Z,46.67
2019-01-20T19:41:50.954Z,44.23
2019-01-20T19:44:22.402Z,44.10
2019-01-20T19:46:58.027Z,41.60
2019-01-20T19:49:26.470Z,38.80
2019-01-20T19:51:54.893Z,39.70
2019-01-20T19:54:26.273Z,39.97
2019-01-20T19:56:57.414Z,44.90
2019-01-20T19:59:25.812Z,49.20
2019-01-20T20:01:54.222Z,50.57
2019-01-20T20:04:22.631Z,41.00
2019-01-20T20:06:51.053Z,44.73
2019-01-20T20:09:20.517Z,39.00
2019-01-20T20:11:48.937Z,39.30
2019-01-20T20:14:20.132Z,46.47
2019-01-20T20:16:51.719Z,45.53
2019-01-20T20:19:23.289Z,46.50
2019-01-20T20:21:53.263Z,37.90
2019-01-20T20:24:25.419Z,42.43
2019-01-20T20:26:51.797Z,43.57
2019-01-20T20:29:20.216Z,37.00
2019-01-20T20:31:49.133Z,36.87
2019-01-20T20:34:20.245Z,42.03
2019-01-20T20:36:48.645Z,37.83
2019-01-20T20:39:17.056Z,43.63
2019-01-20T20:41:45.610Z,40.40
2019-01-20T20:44:17.026Z,35.57
2019-01-20T20:46:45.460Z,36.17
2019-01-20T20:49:14.434Z,37.30
2019-01-20T20:51:42.845Z,41.43
2019-01-20T20:54:13.990Z,45.83
2019-01-20T20:56:42.771Z,46.67
2019-01-20T20:59:11.161Z,46.43
2019-01-20T21:01:39.567Z,50.27
2019-01-20T21:04:09.617Z,51.17
2019-01-20T21:06:38.030Z,51.33
2019-01-20T21:09:09.010Z,53.57
2019-01-20T21:11:37.511Z,49.13
2019-01-20T21:14:05.931Z,44.03
2019-01-20T21:16:38.035Z,44.80
2019-01-20T21:19:04.533Z,39.53
2019-01-20T21:21:34.595Z,45.37
2019-01-20T21:24:03.808Z,37.90
2019-01-20T21:26:32.215Z,42.07
2019-01-20T21:29:00.621Z,42.60
2019-01-20T21:31:29.046Z,40.20
2019-01-20T21:33:57.686Z,40.73
2019-01-20T21:36:26.105Z,39.43
2019-01-20T21:38:56.138Z,36.87
2019-01-20T21:41:24.529Z,37.47
2019-01-20T21:43:54.592Z,40.10
2019-01-20T21:46:22.985Z,38.63
2019-01-20T21:48:51.403Z,40.13
2019-01-20T21:51:19.798Z,41.00
2019-01-20T21:53:48.206Z,43.60
2019-01-20T21:56:16.610Z,47.87
2019-01-20T21:58:45.009Z,41.93
2019-01-20T22:01:16.503Z,43.00
2019-01-20T22:03:44.929Z,40.57
2019-01-20T22:06:13.587Z,44.60
2019-01-20T22:08:41.996Z,41.93
2019-01-20T22:11:10.405Z,41.00
2019-01-20T22:13:38.817Z,39.33
2019-01-20T22:16:07.231Z,40.93
2019-01-20T22:18:40.196Z,40.50
2019-01-20T22:21:13.218Z,41.03
2019-01-20T22:23:42.121Z,39.73
2019-01-20T22:26:16.322Z,42.57
2019-01-20T22:28:50.076Z,38.90
2019-01-20T22:31:21.169Z,37.60
2019-01-20T22:33:51.798Z,38.03
2019-01-20T22:36:28.889Z,40.47
2019-01-20T22:39:03.222Z,44.17
2019-01-20T22:41:34.679Z,40.00
2019-01-20T22:44:09.119Z,44.77
2019-01-20T22:46:41.875Z,45.83
2019-01-20T22:49:12.170Z,44.30
2019-01-20T22:51:40.572Z,44.17
2019-01-20T22:54:17.743Z,44.00
2019-01-20T22:56:51.968Z,43.80
2019-01-20T22:59:20.388Z,47.43
2019-01-20T23:01:50.733Z,41.03
2019-01-20T23:04:19.152Z,41.03
2019-01-20T23:06:48.996Z,40.27
2019-01-20T23:09:20.650Z,38.30
2019-01-20T23:11:49.129Z,37.13
2019-01-20T23:14:17.866Z,39.10
2019-01-20T23:16:46.257Z,41.57
2019-01-20T23:19:16.317Z,45.47
2019-01-20T23:21:47.673Z,39.40
2019-01-20T23:24:21.881Z,39.77
2019-01-20T23:26:50.277Z,43.03
2019-01-20T23:29:21.757Z,37.53
2019-01-20T23:32:02.592Z,40.67
2019-01-20T23:34:32.915Z,37.60
2019-01-20T23:37:04.444Z,35.17
2019-01-20T23:39:32.858Z,33.73
2019-01-20T23:42:04.446Z,37.57
2019-01-20T23:44:36.013Z,37.67
2019-01-20T23:47:07.101Z,37.10
2019-01-20T23:49:35.517Z,39.17
2019-01-20T23:52:04.251Z,43.63
2019-01-20T23:54:32.678Z,39.77
2019-01-20T23:57:01.073Z,36.67
2019-01-20T23:59:29.486Z,44.13
